sensor_id;sensor_type;location;lat;lon;timestamp;pressure;altitude;pressure_sealevel;temperature;humidity
19208;BME280;9737;59.466;18.036;2023-04-08T00:01:05;97535.13;;;2.30;72.95
19208;BME280;9737;59.466;18.036;2023-04-08T00:03:34;97540.50;;;2.28;72.71
19208;BME280;9737;59.466;18.036;2023-04-08T00:06:03;97533.47;;;2.29;73.07
19208;BME280;9737;59.466;18.036;2023-04-08T00:08:31;97537.88;;;2.28;73.03
19208;BME280;9737;59.466;18.036;2023-04-08T00:11:01;97529.19;;;2.28;73.00
19208;BME280;9737;59.466;18.036;2023-04-08T00:13:29;97531.81;;;2.28;72.96
19208;BME280;9737;59.466;18.036;2023-04-08T00:15:57;97539.41;;;2.31;73.02
19208;BME280;9737;59.466;18.036;2023-04-08T00:18:25;97548.09;;;2.31;72.92
19208;BME280;9737;59.466;18.036;2023-04-08T00:20:55;97552.28;;;2.34;72.81
19208;BME280;9737;59.466;18.036;2023-04-08T00:23:23;97536.09;;;2.29;72.90
19208;BME280;9737;59.466;18.036;2023-04-08T00:25:51;97538.00;;;2.27;72.92
19208;BME280;9737;59.466;18.036;2023-04-08T00:28:19;97538.00;;;2.27;73.06
19208;BME280;9737;59.466;18.036;2023-04-08T00:30:47;97536.09;;;2.29;72.78
19208;BME280;9737;59.466;18.036;2023-04-08T00:33:15;97537.88;;;2.28;72.77
19208;BME280;9737;59.466;18.036;2023-04-08T00:35:43;97524.22;;;2.25;72.77
19208;BME280;9737;59.466;18.036;2023-04-08T00:38:13;97519.09;;;2.23;72.67
19208;BME280;9737;59.466;18.036;2023-04-08T00:40:41;97512.31;;;2.21;73.10
19208;BME280;9737;59.466;18.036;2023-04-08T00:43:09;97508.75;;;2.22;73.11
19208;BME280;9737;59.466;18.036;2023-04-08T00:45:37;97503.63;;;2.20;72.94
19208;BME280;9737;59.466;18.036;2023-04-08T00:48:05;97513.03;;;2.23;73.01
19208;BME280;9737;59.466;18.036;2023-04-08T00:50:32;97518.13;;;2.24;73.08
19208;BME280;9737;59.466;18.036;2023-04-08T00:53:00;97513.03;;;2.23;72.90
19208;BME280;9737;59.466;18.036;2023-04-08T00:55:30;97524.22;;;2.25;72.94
19208;BME280;9737;59.466;18.036;2023-04-08T00:57:58;97515.66;;;2.23;73.09
19208;BME280;9737;59.466;18.036;2023-04-08T01:00:26;97528.50;;;2.26;72.79
19208;BME280;9737;59.466;18.036;2023-04-08T01:03:03;97525.03;;;2.25;72.94
19208;BME280;9737;59.466;18.036;2023-04-08T01:05:42;97527.66;;;2.25;72.95
19208;BME280;9737;59.466;18.036;2023-04-08T01:08:16;97530.28;;;2.25;72.85
19208;BME280;9737;59.466;18.036;2023-04-08T01:10:48;97526.84;;;2.25;73.11
19208;BME280;9737;59.466;18.036;2023-04-08T01:13:18;97520.75;;;2.24;72.75
19208;BME280;9737;59.466;18.036;2023-04-08T01:15:49;97526.84;;;2.25;73.00
19208;BME280;9737;59.466;18.036;2023-04-08T01:18:17;97523.25;;;2.26;73.01
19208;BME280;9737;59.466;18.036;2023-04-08T01:20:46;97534.44;;;2.28;72.92
19208;BME280;9737;59.466;18.036;2023-04-08T01:23:19;97534.44;;;2.28;73.10
19208;BME280;9737;59.466;18.036;2023-04-08T01:25:51;97532.78;;;2.27;73.00
19208;BME280;9737;59.466;18.036;2023-04-08T01:28:23;97538.84;;;2.27;72.99
19208;BME280;9737;59.466;18.036;2023-04-08T01:30:52;97531.13;;;2.26;72.93
19208;BME280;9737;59.466;18.036;2023-04-08T01:33:23;97528.50;;;2.26;72.98
19208;BME280;9737;59.466;18.036;2023-04-08T01:35:52;97526.00;;;2.24;73.24
19208;BME280;9737;59.466;18.036;2023-04-08T01:38:23;97512.31;;;2.21;72.94
19208;BME280;9737;59.466;18.036;2023-04-08T01:40:53;97532.78;;;2.27;72.97
19208;BME280;9737;59.466;18.036;2023-04-08T01:43:23;97519.50;;;2.18;73.01
19208;BME280;9737;59.466;18.036;2023-04-08T01:45:53;97491.72;;;2.06;72.77
19208;BME280;9737;59.466;18.036;2023-04-08T01:48:24;97515.78;;;2.21;73.10
19208;BME280;9737;59.466;18.036;2023-04-08T01:50:54;97525.03;;;2.25;73.13
19208;BME280;9737;59.466;18.036;2023-04-08T01:53:23;97507.09;;;2.21;72.89
19208;BME280;9737;59.466;18.036;2023-04-08T01:55:57;97511.50;;;2.20;73.03
19208;BME280;9737;59.466;18.036;2023-04-08T01:58:30;97522.56;;;2.24;73.02
19208;BME280;9737;59.466;18.036;2023-04-08T02:00:59;97529.44;;;2.25;72.98
19208;BME280;9737;59.466;18.036;2023-04-08T02:03:28;97526.25;;;2.21;73.10
19208;BME280;9737;59.466;18.036;2023-04-08T02:05:58;97495.91;;;2.18;72.92
19208;BME280;9737;59.466;18.036;2023-04-08T02:08:26;97473.22;;;2.08;73.37
19208;BME280;9737;59.466;18.036;2023-04-08T02:10:55;97492.72;;;2.15;72.89
19208;BME280;9737;59.466;18.036;2023-04-08T02:13:23;97494.22;;;2.17;73.00
19208;BME280;9737;59.466;18.036;2023-04-08T02:15:56;97515.66;;;2.23;73.18
19208;BME280;9737;59.466;18.036;2023-04-08T02:18:30;97512.31;;;2.21;72.83
19208;BME280;9737;59.466;18.036;2023-04-08T02:21:04;97507.34;;;2.17;72.84
19208;BME280;9737;59.466;18.036;2023-04-08T02:23:36;97508.03;;;2.20;72.90
19208;BME280;9737;59.466;18.036;2023-04-08T02:26:12;97517.56;;;2.21;73.00
19208;BME280;9737;59.466;18.036;2023-04-08T02:28:41;97520.88;;;2.23;73.30
19208;BME280;9737;59.466;18.036;2023-04-08T02:31:10;97534.56;;;2.26;73.15
19208;BME280;9737;59.466;18.036;2023-04-08T02:33:39;97525.88;;;2.26;73.06
19208;BME280;9737;59.466;18.036;2023-04-08T02:36:08;97537.06;;;2.28;72.89
19208;BME280;9737;59.466;18.036;2023-04-08T02:38:37;97525.88;;;2.26;73.14
19208;BME280;9737;59.466;18.036;2023-04-08T02:41:07;97519.94;;;2.24;73.06
19208;BME280;9737;59.466;18.036;2023-04-08T02:43:35;97543.13;;;2.28;73.22
19208;BME280;9737;59.466;18.036;2023-04-08T02:46:03;97549.91;;;2.31;72.99
19208;BME280;9737;59.466;18.036;2023-04-08T02:48:31;97553.25;;;2.33;72.95
19208;BME280;9737;59.466;18.036;2023-04-08T02:51:01;97558.50;;;2.33;73.22
19208;BME280;9737;59.466;18.036;2023-04-08T02:53:30;97572.88;;;2.38;72.91
19208;BME280;9737;59.466;18.036;2023-04-08T02:55:58;97563.47;;;2.36;73.21
19208;BME280;9737;59.466;18.036;2023-04-08T02:58:27;97574.78;;;2.36;73.30
19208;BME280;9737;59.466;18.036;2023-04-08T03:00:55;97576.47;;;2.37;73.18
19208;BME280;9737;59.466;18.036;2023-04-08T03:03:23;97563.47;;;2.36;73.03
19208;BME280;9737;59.466;18.036;2023-04-08T03:05:55;97552.28;;;2.34;73.22
19208;BME280;9737;59.466;18.036;2023-04-08T03:08:23;97556.84;;;2.32;73.06
19208;BME280;9737;59.466;18.036;2023-04-08T03:10:52;97553.06;;;2.25;73.07
19208;BME280;9737;59.466;18.036;2023-04-08T03:13:20;97553.50;;;2.30;73.39
19208;BME280;9737;59.466;18.036;2023-04-08T03:15:49;97533.88;;;2.24;73.33
19208;BME280;9737;59.466;18.036;2023-04-08T03:18:17;97529.44;;;2.25;73.15
19208;BME280;9737;59.466;18.036;2023-04-08T03:20:45;97526.00;;;2.24;72.84
19208;BME280;9737;59.466;18.036;2023-04-08T03:23:13;97518.41;;;2.21;73.08
19208;BME280;9737;59.466;18.036;2023-04-08T03:25:40;97519.22;;;2.22;73.25
19208;BME280;9737;59.466;18.036;2023-04-08T03:28:08;97501.13;;;2.18;72.92
19208;BME280;9737;59.466;18.036;2023-04-08T03:30:36;97502.94;;;2.18;72.92
19208;BME280;9737;59.466;18.036;2023-04-08T03:33:06;97471.44;;;2.08;73.03
19208;BME280;9737;59.466;18.036;2023-04-08T03:35:34;97437.16;;;2.00;72.94
19208;BME280;9737;59.466;18.036;2023-04-08T03:38:03;97413.84;;;1.97;73.13
19208;BME280;9737;59.466;18.036;2023-04-08T03:40:30;97395.34;;;1.89;73.00
19208;BME280;9737;59.466;18.036;2023-04-08T03:42:58;97364.56;;;1.81;73.12
19208;BME280;9737;59.466;18.036;2023-04-08T03:45:26;97327.81;;;1.72;72.86
19208;BME280;9737;59.466;18.036;2023-04-08T03:47:54;97320.94;;;1.71;73.23
19208;BME280;9737;59.466;18.036;2023-04-08T03:50:23;97278.44;;;1.58;73.33
19208;BME280;9737;59.466;18.036;2023-04-08T03:52:51;97290.31;;;1.62;72.78
19208;BME280;9737;59.466;18.036;2023-04-08T03:55:19;97252.50;;;1.54;73.32
19208;BME280;9737;59.466;18.036;2023-04-08T03:57:47;97216.66;;;1.45;72.89
19208;BME280;9737;59.466;18.036;2023-04-08T04:00:15;97208.22;;;1.42;73.06
19208;BME280;9737;59.466;18.036;2023-04-08T04:02:43;97186.03;;;1.36;73.03
19208;BME280;9737;59.466;18.036;2023-04-08T04:05:11;97149.50;;;1.25;72.85
19208;BME280;9737;59.466;18.036;2023-04-08T04:07:40;97101.50;;;1.15;72.89
19208;BME280;9737;59.466;18.036;2023-04-08T04:10:08;97067.59;;;1.04;72.84
19208;BME280;9737;59.466;18.036;2023-04-08T04:12:37;97031.66;;;0.96;73.02
19208;BME280;9737;59.466;18.036;2023-04-08T04:15:06;97042.00;;;0.98;72.56
19208;BME280;9737;59.466;18.036;2023-04-08T04:17:34;97001.19;;;0.85;72.62
19208;BME280;9737;59.466;18.036;2023-04-08T04:20:03;96983.16;;;0.82;72.72
19208;BME280;9737;59.466;18.036;2023-04-08T04:22:31;96971.03;;;0.81;73.00
19208;BME280;9737;59.466;18.036;2023-04-08T04:25:00;97003.69;;;0.87;72.62
19208;BME280;9737;59.466;18.036;2023-04-08T04:27:28;96974.47;;;0.82;72.65
19208;BME280;9737;59.466;18.036;2023-04-08T04:29:56;96953.13;;;0.77;72.91
19208;BME280;9737;59.466;18.036;2023-04-08T04:32:24;96972.97;;;0.79;72.56
19208;BME280;9737;59.466;18.036;2023-04-08T04:34:52;96949.00;;;0.74;72.94
19208;BME280;9737;59.466;18.036;2023-04-08T04:37:19;96931.94;;;0.70;72.85
19208;BME280;9737;59.466;18.036;2023-04-08T04:39:48;96960.16;;;0.76;72.62
19208;BME280;9737;59.466;18.036;2023-04-08T04:42:17;96974.63;;;0.80;73.02
19208;BME280;9737;59.466;18.036;2023-04-08T04:44:45;96956.72;;;0.76;72.71
19208;BME280;9737;59.466;18.036;2023-04-08T04:47:13;96950.66;;;0.75;72.82
19208;BME280;9737;59.466;18.036;2023-04-08T04:49:41;96964.44;;;0.77;72.50
19208;BME280;9737;59.466;18.036;2023-04-08T04:52:11;96982.19;;;0.83;72.61
19208;BME280;9737;59.466;18.036;2023-04-08T04:54:39;96966.22;;;0.77;73.01
19208;BME280;9737;59.466;18.036;2023-04-08T04:57:06;96968.00;;;0.76;72.54
19208;BME280;9737;59.466;18.036;2023-04-08T04:59:36;96977.22;;;0.80;72.94
19208;BME280;9737;59.466;18.036;2023-04-08T05:02:03;97020.63;;;0.92;72.76
19208;BME280;9737;59.466;18.036;2023-04-08T05:04:32;97045.28;;;1.00;72.59
19208;BME280;9737;59.466;18.036;2023-04-08T05:07:00;97073.53;;;1.06;72.85
19208;BME280;9737;59.466;18.036;2023-04-08T05:09:28;97100.69;;;1.14;73.00
19208;BME280;9737;59.466;18.036;2023-04-08T05:11:57;97129.66;;;1.22;72.53
19208;BME280;9737;59.466;18.036;2023-04-08T05:14:27;97165.63;;;1.30;72.74
19208;BME280;9737;59.466;18.036;2023-04-08T05:16:57;97182.72;;;1.34;72.94
19208;BME280;9737;59.466;18.036;2023-04-08T05:19:25;97209.03;;;1.42;72.88
19208;BME280;9737;59.466;18.036;2023-04-08T05:21:53;97249.19;;;1.52;72.86
19208;BME280;9737;59.466;18.036;2023-04-08T05:24:20;97246.44;;;1.54;72.76
19208;BME280;9737;59.466;18.036;2023-04-08T05:26:48;97291.97;;;1.63;73.14
19208;BME280;9737;59.466;18.036;2023-04-08T05:29:18;97304.66;;;1.67;73.22
19208;BME280;9737;59.466;18.036;2023-04-08T05:31:47;97259.28;;;1.57;73.06
19208;BME280;9737;59.466;18.036;2023-04-08T05:34:17;97284.22;;;1.61;73.41
19208;BME280;9737;59.466;18.036;2023-04-08T05:36:48;97360.97;;;1.82;73.16
19208;BME280;9737;59.466;18.036;2023-04-08T05:39:18;97484.16;;;2.13;73.22
19208;BME280;9737;59.466;18.036;2023-04-08T05:41:46;97678.47;;;2.61;73.09
19208;BME280;9737;59.466;18.036;2023-04-08T05:44:14;97840.09;;;3.05;73.32
19208;BME280;9737;59.466;18.036;2023-04-08T05:46:42;98054.66;;;3.58;73.22
19208;BME280;9737;59.466;18.036;2023-04-08T05:49:10;98239.81;;;4.08;73.67
19208;BME280;9737;59.466;18.036;2023-04-08T05:51:40;98441.69;;;4.60;73.57
19208;BME280;9737;59.466;18.036;2023-04-08T05:54:08;98651.00;;;5.11;73.69
19208;BME280;9737;59.466;18.036;2023-04-08T05:56:35;98784.34;;;5.47;74.07
19208;BME280;9737;59.466;18.036;2023-04-08T05:59:03;98958.69;;;5.88;73.80
19208;BME280;9737;59.466;18.036;2023-04-08T06:01:31;98959.44;;;5.90;73.84
19208;BME280;9737;59.466;18.036;2023-04-08T06:03:59;98767.31;;;5.40;74.24
19208;BME280;9737;59.466;18.036;2023-04-08T06:06:28;98765.41;;;5.42;74.00
19208;BME280;9737;59.466;18.036;2023-04-08T06:08:57;98688.97;;;5.19;74.03
19208;BME280;9737;59.466;18.036;2023-04-08T06:11:25;98717.50;;;5.25;73.82
19208;BME280;9737;59.466;18.036;2023-04-08T06:13:52;98913.81;;;5.77;74.07
19208;BME280;9737;59.466;18.036;2023-04-08T06:16:21;99135.59;;;6.33;74.41
19208;BME280;9737;59.466;18.036;2023-04-08T06:18:48;99321.38;;;6.80;73.95
19208;BME280;9737;59.466;18.036;2023-04-08T06:21:18;99505.75;;;7.24;74.04
19208;BME280;9737;59.466;18.036;2023-04-08T06:23:45;99524.78;;;7.29;73.78
19208;BME280;9737;59.466;18.036;2023-04-08T06:26:15;99637.34;;;7.57;74.03
19208;BME280;9737;59.466;18.036;2023-04-08T06:28:43;99714.41;;;7.76;74.04
19208;BME280;9737;59.466;18.036;2023-04-08T06:31:11;99740.47;;;7.83;74.12
19208;BME280;9737;59.466;18.036;2023-04-08T06:33:39;99820.97;;;8.04;74.08
19208;BME280;9737;59.466;18.036;2023-04-08T06:36:07;99926.09;;;8.27;73.97
19208;BME280;9737;59.466;18.036;2023-04-08T06:38:35;99917.41;;;8.25;74.05
19208;BME280;9737;59.466;18.036;2023-04-08T06:41:03;100033.66;;;8.55;74.30
19208;BME280;9737;59.466;18.036;2023-04-08T06:43:34;100156.19;;;8.84;74.00
19208;BME280;9737;59.466;18.036;2023-04-08T06:46:03;100244.66;;;9.09;74.31
19208;BME280;9737;59.466;18.036;2023-04-08T06:48:32;100391.75;;;9.43;74.18
19208;BME280;9737;59.466;18.036;2023-04-08T06:50:59;100391.88;;;9.41;74.45
19208;BME280;9737;59.466;18.036;2023-04-08T06:53:27;100571.00;;;9.88;74.22
19208;BME280;9737;59.466;18.036;2023-04-08T06:55:57;100562.47;;;9.83;74.45
19208;BME280;9737;59.466;18.036;2023-04-08T06:58:25;100742.88;;;10.27;74.56
19208;BME280;9737;59.466;18.036;2023-04-08T07:00:54;100810.13;;;10.42;74.59
19208;BME280;9737;59.466;18.036;2023-04-08T07:03:22;100963.56;;;10.81;74.55
19208;BME280;9737;59.466;18.036;2023-04-08T07:05:51;100911.66;;;10.61;74.50
19208;BME280;9737;59.466;18.036;2023-04-08T07:08:19;100842.25;;;10.51;74.56
19208;BME280;9737;59.466;18.036;2023-04-08T07:10:47;101001.16;;;10.89;74.12
19208;BME280;9737;59.466;18.036;2023-04-08T07:13:15;101152.28;;;11.25;74.41
19208;BME280;9737;59.466;18.036;2023-04-08T07:15:43;101051.03;;;11.00;74.07
19208;BME280;9737;59.466;18.036;2023-04-08T07:18:12;101150.66;;;11.23;74.57
19208;BME280;9737;59.466;18.036;2023-04-08T07:20:40;101108.78;;;11.12;74.30
19208;BME280;9737;59.466;18.036;2023-04-08T07:23:08;100997.63;;;10.89;73.99
19208;BME280;9737;59.466;18.036;2023-04-08T07:25:36;101002.00;;;10.90;74.31
19208;BME280;9737;59.466;18.036;2023-04-08T07:28:04;101119.13;;;11.16;74.22
19208;BME280;9737;59.466;18.036;2023-04-08T07:30:32;101191.75;;;11.33;74.26
19208;BME280;9737;59.466;18.036;2023-04-08T07:33:00;101371.00;;;11.76;73.93
19208;BME280;9737;59.466;18.036;2023-04-08T07:35:29;101471.53;;;12.02;74.12
19208;BME280;9737;59.466;18.036;2023-04-08T07:37:57;101593.25;;;12.32;74.07
19208;BME280;9737;59.466;18.036;2023-04-08T07:40:25;101749.34;;;12.67;74.15
19208;BME280;9737;59.466;18.036;2023-04-08T07:42:53;101808.13;;;12.82;73.95
19208;BME280;9737;59.466;18.036;2023-04-08T07:45:21;101811.75;;;12.81;74.13
19208;BME280;9737;59.466;18.036;2023-04-08T07:47:49;101558.22;;;12.24;74.08
19208;BME280;9737;59.466;18.036;2023-04-08T07:50:17;101751.06;;;12.68;74.02
19208;BME280;9737;59.466;18.036;2023-04-08T07:52:46;101841.41;;;12.90;73.93
19208;BME280;9737;59.466;18.036;2023-04-08T07:55:14;101873.94;;;12.97;73.91
19208;BME280;9737;59.466;18.036;2023-04-08T07:57:42;101864.97;;;12.98;73.93
19208;BME280;9737;59.466;18.036;2023-04-08T08:00:11;102022.13;;;13.36;73.78
19208;BME280;9737;59.466;18.036;2023-04-08T08:02:46;101986.19;;;13.25;73.93
19208;BME280;9737;59.466;18.036;2023-04-08T08:05:14;102160.25;;;13.65;73.82
19208;BME280;9737;59.466;18.036;2023-04-08T08:07:43;102136.47;;;13.60;73.40
19208;BME280;9737;59.466;18.036;2023-04-08T08:10:12;102048.66;;;13.39;73.85
19208;BME280;9737;59.466;18.036;2023-04-08T08:12:39;102040.66;;;13.39;73.52
19208;BME280;9737;59.466;18.036;2023-04-08T08:15:08;102051.63;;;13.34;73.24
19208;BME280;9737;59.466;18.036;2023-04-08T08:17:36;102022.22;;;13.34;73.37
19208;BME280;9737;59.466;18.036;2023-04-08T08:20:06;102285.09;;;13.94;73.36
19208;BME280;9737;59.466;18.036;2023-04-08T08:22:36;102556.13;;;14.60;73.35
19208;BME280;9737;59.466;18.036;2023-04-08T08:25:24;102669.00;;;14.85;73.14
19208;BME280;9737;59.466;18.036;2023-04-08T08:27:52;102848.84;;;15.28;73.31
19208;BME280;9737;59.466;18.036;2023-04-08T08:30:21;103023.56;;;15.70;73.08
19208;BME280;9737;59.466;18.036;2023-04-08T08:32:49;102980.22;;;15.61;72.93
19208;BME280;9737;59.466;18.036;2023-04-08T08:35:17;102680.31;;;14.90;73.47
19208;BME280;9737;59.466;18.036;2023-04-08T08:37:45;102637.97;;;14.81;73.03
19208;BME280;9737;59.466;18.036;2023-04-08T08:40:14;102550.78;;;14.60;73.00
19208;BME280;9737;59.466;18.036;2023-04-08T08:42:49;103058.88;;;15.78;72.73
19208;BME280;9737;59.466;18.036;2023-04-08T08:45:18;103607.38;;;17.06;72.82
19208;BME280;9737;59.466;18.036;2023-04-08T08:47:46;103531.25;;;16.87;72.69
19208;BME280;9737;59.466;18.036;2023-04-08T08:50:17;103591.44;;;17.01;72.67
19208;BME280;9737;59.466;18.036;2023-04-08T08:52:47;103547.16;;;16.91;72.58
19208;BME280;9737;59.466;18.036;2023-04-08T08:55:17;103597.59;;;17.03;72.60
19208;BME280;9737;59.466;18.036;2023-04-08T08:58:07;103589.16;;;16.94;72.53
19208;BME280;9737;59.466;18.036;2023-04-08T09:00:36;103696.03;;;17.25;72.43
19208;BME280;9737;59.466;18.036;2023-04-08T09:03:18;103201.06;;;16.13;72.41
19208;BME280;9737;59.466;18.036;2023-04-08T09:05:48;103183.53;;;16.06;71.94
19208;BME280;9737;59.466;18.036;2023-04-08T09:08:24;103137.63;;;15.95;71.83
19208;BME280;9737;59.466;18.036;2023-04-08T09:10:53;103200.97;;;16.15;71.85
19208;BME280;9737;59.466;18.036;2023-04-08T09:13:22;103460.25;;;16.73;71.92
19208;BME280;9737;59.466;18.036;2023-04-08T09:16:01;103671.03;;;17.23;71.72
19208;BME280;9737;59.466;18.036;2023-04-08T09:18:32;104226.72;;;18.50;71.73
19208;BME280;9737;59.466;18.036;2023-04-08T09:21:01;104252.41;;;18.57;71.58
19208;BME280;9737;59.466;18.036;2023-04-08T09:23:40;104523.00;;;19.17;71.47
19208;BME280;9737;59.466;18.036;2023-04-08T09:26:10;104807.38;;;19.79;71.42
19208;BME280;9737;59.466;18.036;2023-04-08T09:28:56;104896.41;;;20.02;71.46
19208;BME280;9737;59.466;18.036;2023-04-08T09:31:25;104550.63;;;19.23;71.34
19208;BME280;9737;59.466;18.036;2023-04-08T09:33:55;104356.59;;;18.79;71.19
19208;BME280;9737;59.466;18.036;2023-04-08T09:36:23;104532.63;;;19.23;71.13
19208;BME280;9737;59.466;18.036;2023-04-08T09:38:52;104860.63;;;19.97;70.98
19208;BME280;9737;59.466;18.036;2023-04-08T09:41:20;105095.41;;;20.49;70.72
19208;BME280;9737;59.466;18.036;2023-04-08T09:43:53;105148.19;;;20.59;70.68
19208;BME280;9737;59.466;18.036;2023-04-08T09:46:25;105576.53;;;21.56;70.56
19208;BME280;9737;59.466;18.036;2023-04-08T09:49:05;105900.13;;;22.25;70.58
19208;BME280;9737;59.466;18.036;2023-04-08T09:51:39;105893.75;;;22.26;70.05
19208;BME280;9737;59.466;18.036;2023-04-08T09:54:12;105753.84;;;21.95;70.10
19208;BME280;9737;59.466;18.036;2023-04-08T09:56:43;106159.44;;;22.85;69.92
19208;BME280;9737;59.466;18.036;2023-04-08T09:59:16;106135.16;;;22.79;69.85
19208;BME280;9737;59.466;18.036;2023-04-08T10:01:51;105964.56;;;22.43;69.81
19208;BME280;9737;59.466;18.036;2023-04-08T10:04:22;106321.16;;;23.20;69.77
19208;BME280;9737;59.466;18.036;2023-04-08T10:06:53;106954.13;;;24.55;69.53
19208;BME280;9737;59.466;18.036;2023-04-08T10:09:24;106543.25;;;23.69;69.66
19208;BME280;9737;59.466;18.036;2023-04-08T10:11:54;106576.47;;;23.79;69.16
19208;BME280;9737;59.466;18.036;2023-04-08T10:14:23;107005.41;;;24.70;68.94
19208;BME280;9737;59.466;18.036;2023-04-08T10:17:24;106606.13;;;23.87;68.94
19208;BME280;9737;59.466;18.036;2023-04-08T10:19:53;107116.28;;;24.97;68.71
19208;BME280;9737;59.466;18.036;2023-04-08T10:22:46;107197.53;;;25.14;68.35
19208;BME280;9737;59.466;18.036;2023-04-08T10:25:31;107073.84;;;24.89;68.39
19208;BME280;9737;59.466;18.036;2023-04-08T10:28:00;107024.19;;;24.79;68.25
19208;BME280;9737;59.466;18.036;2023-04-08T10:30:43;107049.44;;;24.84;67.90
19208;BME280;9737;59.466;18.036;2023-04-08T10:33:14;106644.59;;;24.02;67.81
19208;BME280;9737;59.466;18.036;2023-04-08T10:35:43;106946.41;;;24.69;67.41
19208;BME280;9737;59.466;18.036;2023-04-08T10:38:15;107335.53;;;25.51;67.48
19208;BME280;9737;59.466;18.036;2023-04-08T10:40:43;107686.38;;;26.26;67.15
19208;BME280;9737;59.466;18.036;2023-04-08T10:43:12;107336.53;;;25.48;67.00
19208;BME280;9737;59.466;18.036;2023-04-08T10:45:43;107088.84;;;25.04;66.97
19208;BME280;9737;59.466;18.036;2023-04-08T10:48:16;106890.38;;;24.62;66.60
19208;BME280;9737;59.466;18.036;2023-04-08T10:50:51;105950.28;;;22.62;66.60
19208;BME280;9737;59.466;18.036;2023-04-08T10:53:25;106175.53;;;23.14;65.83
19208;BME280;9737;59.466;18.036;2023-04-08T10:55:54;106992.00;;;24.92;65.74
19208;BME280;9737;59.466;18.036;2023-04-08T10:58:22;106249.06;;;23.33;65.45
19208;BME280;9737;59.466;18.036;2023-04-08T11:00:51;106479.31;;;23.83;65.42
19208;BME280;9737;59.466;18.036;2023-04-08T11:03:19;106523.22;;;23.97;65.49
19208;BME280;9737;59.466;18.036;2023-04-08T11:05:48;106929.50;;;24.86;65.20
19208;BME280;9737;59.466;18.036;2023-04-08T11:08:16;107003.56;;;25.00;64.94
19208;BME280;9737;59.466;18.036;2023-04-08T11:10:47;107588.09;;;26.24;64.57
19208;BME280;9737;59.466;18.036;2023-04-08T11:13:15;107829.81;;;26.76;64.44
19208;BME280;9737;59.466;18.036;2023-04-08T11:15:43;107932.22;;;26.97;64.30
19208;BME280;9737;59.466;18.036;2023-04-08T11:18:12;108084.56;;;27.29;64.09
19208;BME280;9737;59.466;18.036;2023-04-08T11:20:42;107380.06;;;25.82;64.04
19208;BME280;9737;59.466;18.036;2023-04-08T11:23:12;106575.19;;;24.16;63.92
19208;BME280;9737;59.466;18.036;2023-04-08T11:25:40;106322.25;;;23.64;63.69
19208;BME280;9737;59.466;18.036;2023-04-08T11:28:11;106154.91;;;23.32;63.02
19208;BME280;9737;59.466;18.036;2023-04-08T11:30:40;107170.00;;;25.51;63.01
19208;BME280;9737;59.466;18.036;2023-04-08T11:33:09;107562.34;;;26.35;63.07
19208;BME280;9737;59.466;18.036;2023-04-08T11:35:40;107656.41;;;26.55;62.78
19208;BME280;9737;59.466;18.036;2023-04-08T11:38:08;107918.28;;;27.08;62.75
19208;BME280;9737;59.466;18.036;2023-04-08T11:40:36;107563.19;;;26.37;62.33
19208;BME280;9737;59.466;18.036;2023-04-08T11:43:08;107925.38;;;27.15;62.22
19208;BME280;9737;59.466;18.036;2023-04-08T11:45:37;108093.16;;;27.50;62.41
19208;BME280;9737;59.466;18.036;2023-04-08T11:48:09;108170.25;;;27.67;62.03
19208;BME280;9737;59.466;18.036;2023-04-08T11:50:37;107638.16;;;26.56;62.05
19208;BME280;9737;59.466;18.036;2023-04-08T11:53:16;107758.47;;;26.85;61.31
19208;BME280;9737;59.466;18.036;2023-04-08T11:55:45;108037.88;;;27.35;61.57
19208;BME280;9737;59.466;18.036;2023-04-08T11:58:14;108167.34;;;27.73;61.06
19208;BME280;9737;59.466;18.036;2023-04-08T12:00:42;108004.88;;;27.41;61.22
19208;BME280;9737;59.466;18.036;2023-04-08T12:03:11;107762.03;;;26.89;60.60
19208;BME280;9737;59.466;18.036;2023-04-08T12:05:39;106951.81;;;25.25;60.52
19208;BME280;9737;59.466;18.036;2023-04-08T12:08:35;107014.03;;;25.39;60.01
19208;BME280;9737;59.466;18.036;2023-04-08T12:11:02;107421.28;;;26.31;59.69
19208;BME280;9737;59.466;18.036;2023-04-08T12:13:45;107813.25;;;27.13;59.86
19208;BME280;9737;59.466;18.036;2023-04-08T12:16:16;106937.19;;;25.27;59.51
19208;BME280;9737;59.466;18.036;2023-04-08T12:18:44;107367.81;;;26.23;59.26
19208;BME280;9737;59.466;18.036;2023-04-08T12:21:12;106979.66;;;25.35;59.06
19208;BME280;9737;59.466;18.036;2023-04-08T12:23:42;107374.91;;;26.29;59.12
19208;BME280;9737;59.466;18.036;2023-04-08T12:26:10;107564.97;;;26.67;58.93
19208;BME280;9737;59.466;18.036;2023-04-08T12:28:39;107187.00;;;25.87;58.77
19208;BME280;9737;59.466;18.036;2023-04-08T12:31:06;107474.25;;;26.54;58.08
19208;BME280;9737;59.466;18.036;2023-04-08T12:33:34;107223.91;;;25.99;58.25
19208;BME280;9737;59.466;18.036;2023-04-08T12:36:02;106646.53;;;24.75;57.96
19208;BME280;9737;59.466;18.036;2023-04-08T12:38:30;107179.56;;;25.92;57.98
19208;BME280;9737;59.466;18.036;2023-04-08T12:41:00;107061.22;;;25.69;57.58
19208;BME280;9737;59.466;18.036;2023-04-08T12:43:28;107469.53;;;26.60;57.26
19208;BME280;9737;59.466;18.036;2023-04-08T12:45:58;107462.25;;;26.60;57.53
19208;BME280;9737;59.466;18.036;2023-04-08T12:48:27;107536.47;;;26.74;56.94
19208;BME280;9737;59.466;18.036;2023-04-08T12:50:55;107654.03;;;27.04;56.95
19208;BME280;9737;59.466;18.036;2023-04-08T12:53:24;107393.41;;;26.49;56.50
19208;BME280;9737;59.466;18.036;2023-04-08T12:55:52;107644.97;;;27.02;56.58
19208;BME280;9737;59.466;18.036;2023-04-08T12:58:24;107291.16;;;26.28;56.38
19208;BME280;9737;59.466;18.036;2023-04-08T13:00:52;106906.53;;;25.46;56.15
19208;BME280;9737;59.466;18.036;2023-04-08T13:03:20;106804.47;;;25.28;55.78
19208;BME280;9737;59.466;18.036;2023-04-08T13:05:48;107349.63;;;26.50;55.77
19208;BME280;9737;59.466;18.036;2023-04-08T13:08:16;107239.34;;;26.27;55.48
19208;BME280;9737;59.466;18.036;2023-04-08T13:10:44;107151.72;;;26.08;55.19
19208;BME280;9737;59.466;18.036;2023-04-08T13:13:12;107155.25;;;26.11;55.07